sensor_id;sensor_type;location;lat;lon;timestamp;temperature;humidity
148;DHT22;142;50.652;12.216;2022-09-16T00:01:20;15.10;58.20
148;DHT22;142;50.652;12.216;2022-09-16T00:03:47;15.10;58.30
148;DHT22;142;50.652;12.216;2022-09-16T00:06:17;15.10;58.60
148;DHT22;142;50.652;12.216;2022-09-16T00:08:44;15.00;58.70
148;DHT22;142;50.652;12.216;2022-09-16T00:11:11;14.90;58.80
148;DHT22;142;50.652;12.216;2022-09-16T00:13:42;14.80;59.00
148;DHT22;142;50.652;12.216;2022-09-16T00:16:12;14.80;59.10
148;DHT22;142;50.652;12.216;2022-09-16T00:18:39;14.80;59.30
148;DHT22;142;50.652;12.216;2022-09-16T00:21:08;14.80;59.30
148;DHT22;142;50.652;12.216;2022-09-16T00:23:35;14.80;59.20
148;DHT22;142;50.652;12.216;2022-09-16T00:26:04;14.80;59.20
148;DHT22;142;50.652;12.216;2022-09-16T00:28:31;14.70;59.30
148;DHT22;142;50.652;12.216;2022-09-16T00:31:01;14.70;59.50
148;DHT22;142;50.652;12.216;2022-09-16T00:33:28;14.60;59.40
148;DHT22;142;50.652;12.216;2022-09-16T00:36:04;14.50;59.20
148;DHT22;142;50.652;12.216;2022-09-16T00:38:32;14.50;59.60
148;DHT22;142;50.652;12.216;2022-09-16T00:40:59;14.50;59.60
148;DHT22;142;50.652;12.216;2022-09-16T00:43:26;14.50;59.90
148;DHT22;142;50.652;12.216;2022-09-16T00:45:57;14.40;60.10
148;DHT22;142;50.652;12.216;2022-09-16T00:48:28;14.40;60.60
148;DHT22;142;50.652;12.216;2022-09-16T00:50:58;14.40;60.80
148;DHT22;142;50.652;12.216;2022-09-16T00:53:28;14.30;61.10
148;DHT22;142;50.652;12.216;2022-09-16T00:55:58;14.40;61.30
148;DHT22;142;50.652;12.216;2022-09-16T00:58:30;14.40;61.30
148;DHT22;142;50.652;12.216;2022-09-16T01:00:58;14.40;61.50
148;DHT22;142;50.652;12.216;2022-09-16T01:03:29;14.40;61.60
148;DHT22;142;50.652;12.216;2022-09-16T01:05:57;14.40;61.80
148;DHT22;142;50.652;12.216;2022-09-16T01:08:25;14.40;61.90
148;DHT22;142;50.652;12.216;2022-09-16T01:10:52;14.40;61.70
148;DHT22;142;50.652;12.216;2022-09-16T01:13:19;14.30;62.30
148;DHT22;142;50.652;12.216;2022-09-16T01:15:53;14.30;62.40
148;DHT22;142;50.652;12.216;2022-09-16T01:18:28;14.30;62.50
148;DHT22;142;50.652;12.216;2022-09-16T01:21:17;14.30;62.60
148;DHT22;142;50.652;12.216;2022-09-16T01:24:12;14.30;62.60
148;DHT22;142;50.652;12.216;2022-09-16T01:30:19;14.10;61.90
148;DHT22;142;50.652;12.216;2022-09-16T01:33:05;14.10;61.90
148;DHT22;142;50.652;12.216;2022-09-16T01:35:56;14.10;61.90
148;DHT22;142;50.652;12.216;2022-09-16T01:38:39;14.00;62.00
148;DHT22;142;50.652;12.216;2022-09-16T01:41:15;14.00;62.00
148;DHT22;142;50.652;12.216;2022-09-16T01:43:55;14.00;61.70
148;DHT22;142;50.652;12.216;2022-09-16T01:46:32;14.10;61.60
148;DHT22;142;50.652;12.216;2022-09-16T01:49:12;14.10;61.40
148;DHT22;142;50.652;12.216;2022-09-16T01:51:47;13.90;60.80
148;DHT22;142;50.652;12.216;2022-09-16T01:54:20;13.90;61.20
148;DHT22;142;50.652;12.216;2022-09-16T01:56:55;13.90;61.10
148;DHT22;142;50.652;12.216;2022-09-16T01:59:27;13.90;61.40
148;DHT22;142;50.652;12.216;2022-09-16T02:01:58;13.90;61.40
148;DHT22;142;50.652;12.216;2022-09-16T02:04:30;13.90;61.40
148;DHT22;142;50.652;12.216;2022-09-16T02:07:00;13.80;61.40
148;DHT22;142;50.652;12.216;2022-09-16T02:09:31;13.80;61.40
148;DHT22;142;50.652;12.216;2022-09-16T02:12:03;13.80;61.60
148;DHT22;142;50.652;12.216;2022-09-16T02:14:34;13.80;61.80
148;DHT22;142;50.652;12.216;2022-09-16T02:17:05;13.80;61.80
148;DHT22;142;50.652;12.216;2022-09-16T02:19:36;13.80;62.10
148;DHT22;142;50.652;12.216;2022-09-16T02:22:09;13.70;62.30
148;DHT22;142;50.652;12.216;2022-09-16T02:24:37;13.70;62.50
148;DHT22;142;50.652;12.216;2022-09-16T02:27:09;13.70;62.60
148;DHT22;142;50.652;12.216;2022-09-16T02:29:42;13.60;62.60
148;DHT22;142;50.652;12.216;2022-09-16T02:32:13;13.60;63.00
148;DHT22;142;50.652;12.216;2022-09-16T02:34:44;13.60;62.90
148;DHT22;142;50.652;12.216;2022-09-16T02:37:17;13.50;63.40
148;DHT22;142;50.652;12.216;2022-09-16T02:39:48;13.50;63.60
148;DHT22;142;50.652;12.216;2022-09-16T02:42:16;13.50;63.60
148;DHT22;142;50.652;12.216;2022-09-16T02:44:43;13.50;63.70
148;DHT22;142;50.652;12.216;2022-09-16T02:47:14;13.40;63.80
148;DHT22;142;50.652;12.216;2022-09-16T02:49:48;13.30;64.20
148;DHT22;142;50.652;12.216;2022-09-16T02:52:23;13.30;64.40
148;DHT22;142;50.652;12.216;2022-09-16T02:55:02;13.30;64.60
148;DHT22;142;50.652;12.216;2022-09-16T02:57:31;13.20;64.70
148;DHT22;142;50.652;12.216;2022-09-16T02:59:58;13.10;64.80
148;DHT22;142;50.652;12.216;2022-09-16T03:02:25;13.10;65.00
148;DHT22;142;50.652;12.216;2022-09-16T03:04:54;13.00;65.30
148;DHT22;142;50.652;12.216;2022-09-16T03:07:21;13.10;65.50
148;DHT22;142;50.652;12.216;2022-09-16T03:09:49;13.00;65.60
148;DHT22;142;50.652;12.216;2022-09-16T03:12:32;12.90;65.80
148;DHT22;142;50.652;12.216;2022-09-16T03:15:27;12.80;66.00
148;DHT22;142;50.652;12.216;2022-09-16T03:20:59;12.70;66.70
148;DHT22;142;50.652;12.216;2022-09-16T03:23:40;12.70;66.80
148;DHT22;142;50.652;12.216;2022-09-16T03:26:15;12.70;67.10
148;DHT22;142;50.652;12.216;2022-09-16T03:28:52;12.70;67.20
148;DHT22;142;50.652;12.216;2022-09-16T03:31:25;12.70;67.30
148;DHT22;142;50.652;12.216;2022-09-16T03:34:01;12.70;67.40
148;DHT22;142;50.652;12.216;2022-09-16T03:36:34;12.80;67.40
148;DHT22;142;50.652;12.216;2022-09-16T03:39:04;12.80;67.40
148;DHT22;142;50.652;12.216;2022-09-16T03:41:32;12.90;66.80
148;DHT22;142;50.652;12.216;2022-09-16T03:44:00;13.00;66.40
148;DHT22;142;50.652;12.216;2022-09-16T03:46:27;13.00;65.70
148;DHT22;142;50.652;12.216;2022-09-16T03:48:54;13.10;65.80
148;DHT22;142;50.652;12.216;2022-09-16T03:51:22;13.10;65.10
148;DHT22;142;50.652;12.216;2022-09-16T03:53:50;13.20;64.80
148;DHT22;142;50.652;12.216;2022-09-16T03:56:18;13.20;64.70
148;DHT22;142;50.652;12.216;2022-09-16T03:58:46;13.30;64.60
148;DHT22;142;50.652;12.216;2022-09-16T04:01:14;13.30;64.70
148;DHT22;142;50.652;12.216;2022-09-16T04:03:41;13.40;64.60
148;DHT22;142;50.652;12.216;2022-09-16T04:06:08;13.40;64.50
148;DHT22;142;50.652;12.216;2022-09-16T04:08:35;13.30;64.20
148;DHT22;142;50.652;12.216;2022-09-16T04:11:06;13.20;64.40
148;DHT22;142;50.652;12.216;2022-09-16T04:13:34;13.00;64.80
148;DHT22;142;50.652;12.216;2022-09-16T04:16:03;13.00;65.30
148;DHT22;142;50.652;12.216;2022-09-16T04:18:30;13.00;65.30
148;DHT22;142;50.652;12.216;2022-09-16T04:20:59;13.00;65.20
148;DHT22;142;50.652;12.216;2022-09-16T04:23:27;13.10;65.10
148;DHT22;142;50.652;12.216;2022-09-16T04:25:55;13.10;65.00
148;DHT22;142;50.652;12.216;2022-09-16T04:28:25;13.10;65.00
148;DHT22;142;50.652;12.216;2022-09-16T04:30:52;13.10;65.00
148;DHT22;142;50.652;12.216;2022-09-16T04:33:19;13.10;65.20
148;DHT22;142;50.652;12.216;2022-09-16T04:35:46;13.10;65.10
148;DHT22;142;50.652;12.216;2022-09-16T04:38:13;13.10;65.30
148;DHT22;142;50.652;12.216;2022-09-16T04:40:40;13.20;65.20
148;DHT22;142;50.652;12.216;2022-09-16T04:43:08;13.30;64.70
148;DHT22;142;50.652;12.216;2022-09-16T04:45:36;13.30;64.50
148;DHT22;142;50.652;12.216;2022-09-16T04:48:03;13.30;64.30
148;DHT22;142;50.652;12.216;2022-09-16T04:50:30;13.30;64.40
148;DHT22;142;50.652;12.216;2022-09-16T04:52:58;13.40;64.50
148;DHT22;142;50.652;12.216;2022-09-16T04:55:25;13.50;64.30
148;DHT22;142;50.652;12.216;2022-09-16T04:57:52;13.50;64.20
148;DHT22;142;50.652;12.216;2022-09-16T05:00:19;13.50;64.20
148;DHT22;142;50.652;12.216;2022-09-16T05:02:48;13.50;64.20
148;DHT22;142;50.652;12.216;2022-09-16T05:05:15;13.40;64.20
148;DHT22;142;50.652;12.216;2022-09-16T05:07:42;13.50;64.40
148;DHT22;142;50.652;12.216;2022-09-16T05:10:09;13.50;64.30
148;DHT22;142;50.652;12.216;2022-09-16T05:12:37;13.50;64.50
148;DHT22;142;50.652;12.216;2022-09-16T05:15:04;13.50;64.60
148;DHT22;142;50.652;12.216;2022-09-16T05:17:32;13.50;64.60
148;DHT22;142;50.652;12.216;2022-09-16T05:20:01;13.60;64.40
148;DHT22;142;50.652;12.216;2022-09-16T05:22:28;13.60;64.50
148;DHT22;142;50.652;12.216;2022-09-16T05:24:55;13.60;64.70
148;DHT22;142;50.652;12.216;2022-09-16T05:27:22;13.70;64.80
148;DHT22;142;50.652;12.216;2022-09-16T05:29:52;13.70;64.50
148;DHT22;142;50.652;12.216;2022-09-16T05:32:19;13.70;64.80
148;DHT22;142;50.652;12.216;2022-09-16T05:34:46;13.80;64.70
148;DHT22;142;50.652;12.216;2022-09-16T05:37:15;13.70;64.70
148;DHT22;142;50.652;12.216;2022-09-16T05:39:48;13.70;64.70
148;DHT22;142;50.652;12.216;2022-09-16T05:42:15;13.70;64.80
148;DHT22;142;50.652;12.216;2022-09-16T05:44:42;13.70;64.80
148;DHT22;142;50.652;12.216;2022-09-16T05:47:09;13.50;64.70
148;DHT22;142;50.652;12.216;2022-09-16T05:49:36;13.50;65.20
148;DHT22;142;50.652;12.216;2022-09-16T05:52:03;13.50;65.60
148;DHT22;142;50.652;12.216;2022-09-16T05:54:31;13.60;66.00
148;DHT22;142;50.652;12.216;2022-09-16T05:56:59;13.60;65.80
148;DHT22;142;50.652;12.216;2022-09-16T05:59:26;13.60;65.60
148;DHT22;142;50.652;12.216;2022-09-16T06:01:52;13.70;65.60
148;DHT22;142;50.652;12.216;2022-09-16T06:04:19;13.70;65.40
148;DHT22;142;50.652;12.216;2022-09-16T06:06:46;13.80;65.50
148;DHT22;142;50.652;12.216;2022-09-16T06:09:17;13.90;65.10
148;DHT22;142;50.652;12.216;2022-09-16T06:11:47;13.90;64.50
148;DHT22;142;50.652;12.216;2022-09-16T06:14:15;14.00;64.20
148;DHT22;142;50.652;12.216;2022-09-16T06:16:43;14.10;64.00
148;DHT22;142;50.652;12.216;2022-09-16T06:19:13;14.20;63.50
148;DHT22;142;50.652;12.216;2022-09-16T06:21:41;14.30;62.80
148;DHT22;142;50.652;12.216;2022-09-16T06:24:08;14.40;60.90
148;DHT22;142;50.652;12.216;2022-09-16T06:26:37;14.50;60.90
148;DHT22;142;50.652;12.216;2022-09-16T06:29:07;14.60;59.70
148;DHT22;142;50.652;12.216;2022-09-16T06:31:34;14.60;59.00
148;DHT22;142;50.652;12.216;2022-09-16T06:34:02;14.50;59.00
148;DHT22;142;50.652;12.216;2022-09-16T06:36:31;14.50;59.10
148;DHT22;142;50.652;12.216;2022-09-16T06:38:58;14.50;59.00
148;DHT22;142;50.652;12.216;2022-09-16T06:41:25;14.50;58.40
148;DHT22;142;50.652;12.216;2022-09-16T06:43:53;14.60;58.50
148;DHT22;142;50.652;12.216;2022-09-16T06:46:23;14.60;57.80
148;DHT22;142;50.652;12.216;2022-09-16T06:48:51;14.70;58.00
148;DHT22;142;50.652;12.216;2022-09-16T06:51:22;14.70;56.70
148;DHT22;142;50.652;12.216;2022-09-16T06:53:50;14.70;56.70
148;DHT22;142;50.652;12.216;2022-09-16T06:56:20;14.70;57.20
148;DHT22;142;50.652;12.216;2022-09-16T06:58:48;14.60;57.10
148;DHT22;142;50.652;12.216;2022-09-16T07:01:18;14.60;57.10
148;DHT22;142;50.652;12.216;2022-09-16T07:03:49;14.70;57.20
148;DHT22;142;50.652;12.216;2022-09-16T07:06:17;14.70;57.00
148;DHT22;142;50.652;12.216;2022-09-16T07:08:45;14.70;56.90
148;DHT22;142;50.652;12.216;2022-09-16T07:11:15;14.70;56.90
148;DHT22;142;50.652;12.216;2022-09-16T07:13:43;14.50;56.60
148;DHT22;142;50.652;12.216;2022-09-16T07:16:13;14.60;56.80
148;DHT22;142;50.652;12.216;2022-09-16T07:18:40;14.70;56.60
148;DHT22;142;50.652;12.216;2022-09-16T07:21:11;15.00;56.50
148;DHT22;142;50.652;12.216;2022-09-16T07:23:40;15.10;55.60
148;DHT22;142;50.652;12.216;2022-09-16T07:26:09;15.30;55.30
148;DHT22;142;50.652;12.216;2022-09-16T07:28:38;15.40;53.50
148;DHT22;142;50.652;12.216;2022-09-16T07:31:06;15.40;53.20
148;DHT22;142;50.652;12.216;2022-09-16T07:33:36;15.40;51.90
148;DHT22;142;50.652;12.216;2022-09-16T07:36:04;15.40;52.20
148;DHT22;142;50.652;12.216;2022-09-16T07:38:33;15.50;52.30
148;DHT22;142;50.652;12.216;2022-09-16T07:41:03;15.50;52.30
148;DHT22;142;50.652;12.216;2022-09-16T07:43:31;15.50;52.10
148;DHT22;142;50.652;12.216;2022-09-16T07:45:58;15.60;52.10
148;DHT22;142;50.652;12.216;2022-09-16T07:48:27;15.60;52.20
148;DHT22;142;50.652;12.216;2022-09-16T07:50:56;15.50;52.20
148;DHT22;142;50.652;12.216;2022-09-16T07:53:24;15.50;52.30
148;DHT22;142;50.652;12.216;2022-09-16T07:55:53;15.50;52.00
148;DHT22;142;50.652;12.216;2022-09-16T07:58:20;15.40;52.00
148;DHT22;142;50.652;12.216;2022-09-16T08:00:48;15.30;52.40
148;DHT22;142;50.652;12.216;2022-09-16T08:03:16;15.30;52.00
148;DHT22;142;50.652;12.216;2022-09-16T08:05:43;15.40;52.50
148;DHT22;142;50.652;12.216;2022-09-16T08:08:11;15.50;52.60
148;DHT22;142;50.652;12.216;2022-09-16T08:10:38;15.70;52.70
148;DHT22;142;50.652;12.216;2022-09-16T08:13:07;15.70;52.00
148;DHT22;142;50.652;12.216;2022-09-16T08:15:35;15.80;51.40
148;DHT22;142;50.652;12.216;2022-09-16T08:18:02;15.90;51.70
148;DHT22;142;50.652;12.216;2022-09-16T08:20:30;16.20;50.40
148;DHT22;142;50.652;12.216;2022-09-16T08:22:57;16.30;49.60
148;DHT22;142;50.652;12.216;2022-09-16T08:25:25;16.40;49.90
148;DHT22;142;50.652;12.216;2022-09-16T08:27:52;16.50;49.30
148;DHT22;142;50.652;12.216;2022-09-16T08:30:20;16.40;49.60
148;DHT22;142;50.652;12.216;2022-09-16T08:32:51;16.40;49.60
148;DHT22;142;50.652;12.216;2022-09-16T08:35:21;16.10;49.40
148;DHT22;142;50.652;12.216;2022-09-16T08:37:48;16.20;49.90
148;DHT22;142;50.652;12.216;2022-09-16T08:40:19;16.10;49.30
148;DHT22;142;50.652;12.216;2022-09-16T08:42:56;16.20;50.50
148;DHT22;142;50.652;12.216;2022-09-16T08:45:29;16.40;50.30
148;DHT22;142;50.652;12.216;2022-09-16T08:48:17;16.40;50.50
148;DHT22;142;50.652;12.216;2022-09-16T08:50:47;16.30;50.60
148;DHT22;142;50.652;12.216;2022-09-16T08:53:20;16.20;54.30
148;DHT22;142;50.652;12.216;2022-09-16T08:55:49;16.20;65.80
148;DHT22;142;50.652;12.216;2022-09-16T08:58:18;16.30;67.40
148;DHT22;142;50.652;12.216;2022-09-16T09:00:51;16.40;67.10
148;DHT22;142;50.652;12.216;2022-09-16T09:03:29;16.50;68.20
148;DHT22;142;50.652;12.216;2022-09-16T09:06:02;16.50;68.30
148;DHT22;142;50.652;12.216;2022-09-16T09:08:39;16.50;68.40
148;DHT22;142;50.652;12.216;2022-09-16T09:11:14;16.50;68.10
148;DHT22;142;50.652;12.216;2022-09-16T09:13:58;16.60;66.40
148;DHT22;142;50.652;12.216;2022-09-16T09:16:38;16.70;67.90
148;DHT22;142;50.652;12.216;2022-09-16T09:19:19;16.20;67.40
148;DHT22;142;50.652;12.216;2022-09-16T09:21:55;15.90;67.30
148;DHT22;142;50.652;12.216;2022-09-16T09:24:50;15.90;66.80
148;DHT22;142;50.652;12.216;2022-09-16T09:27:25;16.00;67.30
148;DHT22;142;50.652;12.216;2022-09-16T09:30:01;16.00;67.70
148;DHT22;142;50.652;12.216;2022-09-16T09:32:40;16.20;67.60
148;DHT22;142;50.652;12.216;2022-09-16T09:35:20;16.60;67.70
148;DHT22;142;50.652;12.216;2022-09-16T09:40:49;16.50;68.60
148;DHT22;142;50.652;12.216;2022-09-16T09:43:21;16.60;69.40
148;DHT22;142;50.652;12.216;2022-09-16T09:45:55;16.60;73.70
148;DHT22;142;50.652;12.216;2022-09-16T09:48:29;16.50;73.50
148;DHT22;142;50.652;12.216;2022-09-16T09:50:59;16.70;73.40
148;DHT22;142;50.652;12.216;2022-09-16T09:53:34;16.90;73.50
148;DHT22;142;50.652;12.216;2022-09-16T09:56:11;17.10;73.60
148;DHT22;142;50.652;12.216;2022-09-16T09:58:42;17.00;73.80
148;DHT22;142;50.652;12.216;2022-09-16T10:01:11;16.90;73.90
148;DHT22;142;50.652;12.216;2022-09-16T10:03:41;16.80;84.60
148;DHT22;142;50.652;12.216;2022-09-16T10:06:10;16.70;85.40
148;DHT22;142;50.652;12.216;2022-09-16T10:08:42;16.50;85.00
148;DHT22;142;50.652;12.216;2022-09-16T10:11:15;16.40;85.10
148;DHT22;142;50.652;12.216;2022-09-16T10:13:47;16.50;85.40
148;DHT22;142;50.652;12.216;2022-09-16T10:16:17;16.90;85.90
148;DHT22;142;50.652;12.216;2022-09-16T10:18:54;17.10;84.40
148;DHT22;142;50.652;12.216;2022-09-16T10:21:22;17.30;84.10
148;DHT22;142;50.652;12.216;2022-09-16T10:23:54;17.70;83.90
148;DHT22;142;50.652;12.216;2022-09-16T10:26:23;17.80;82.40
148;DHT22;142;50.652;12.216;2022-09-16T10:28:56;17.90;81.30
148;DHT22;142;50.652;12.216;2022-09-16T10:31:25;17.20;84.60
148;DHT22;142;50.652;12.216;2022-09-16T10:33:55;16.40;72.60
148;DHT22;142;50.652;12.216;2022-09-16T10:36:31;15.50;68.20
148;DHT22;142;50.652;12.216;2022-09-16T10:39:00;15.20;60.60
148;DHT22;142;50.652;12.216;2022-09-16T10:41:31;15.20;58.20
148;DHT22;142;50.652;12.216;2022-09-16T10:44:00;15.10;58.00
148;DHT22;142;50.652;12.216;2022-09-16T10:46:30;15.00;57.90
148;DHT22;142;50.652;12.216;2022-09-16T10:49:10;15.00;57.90
148;DHT22;142;50.652;12.216;2022-09-16T10:51:38;14.90;59.40
148;DHT22;142;50.652;12.216;2022-09-16T10:54:05;15.10;61.40
148;DHT22;142;50.652;12.216;2022-09-16T10:56:34;15.50;61.70
148;DHT22;142;50.652;12.216;2022-09-16T10:59:13;15.70;65.00
148;DHT22;142;50.652;12.216;2022-09-16T11:01:44;16.00;66.20
148;DHT22;142;50.652;12.216;2022-09-16T11:04:47;16.30;70.00
148;DHT22;142;50.652;12.216;2022-09-16T11:07:29;16.10;73.50
148;DHT22;142;50.652;12.216;2022-09-16T11:10:08;15.90;70.30
148;DHT22;142;50.652;12.216;2022-09-16T11:13:02;16.00;67.00
148;DHT22;142;50.652;12.216;2022-09-16T11:15:40;15.80;69.20
148;DHT22;142;50.652;12.216;2022-09-16T11:18:23;15.80;70.20
148;DHT22;142;50.652;12.216;2022-09-16T11:21:11;15.70;73.40
148;DHT22;142;50.652;12.216;2022-09-16T11:23:49;15.80;76.10
148;DHT22;142;50.652;12.216;2022-09-16T11:26:24;16.00;73.60
148;DHT22;142;50.652;12.216;2022-09-16T11:29:12;16.10;77.70
148;DHT22;142;50.652;12.216;2022-09-16T11:31:46;16.20;81.30
148;DHT22;142;50.652;12.216;2022-09-16T11:34:28;16.30;82.40
148;DHT22;142;50.652;12.216;2022-09-16T11:37:07;16.60;82.90
148;DHT22;142;50.652;12.216;2022-09-16T11:39:50;16.40;82.90
148;DHT22;142;50.652;12.216;2022-09-16T11:42:26;16.20;83.90
148;DHT22;142;50.652;12.216;2022-09-16T11:45:05;16.20;83.80
148;DHT22;142;50.652;12.216;2022-09-16T11:47:46;16.10;83.80
148;DHT22;142;50.652;12.216;2022-09-16T11:50:27;16.20;84.30
148;DHT22;142;50.652;12.216;2022-09-16T11:53:25;16.40;84.10
148;DHT22;142;50.652;12.216;2022-09-16T11:55:58;16.60;84.10
148;DHT22;142;50.652;12.216;2022-09-16T11:58:32;16.80;84.30
148;DHT22;142;50.652;12.216;2022-09-16T12:01:08;16.90;84.50
148;DHT22;142;50.652;12.216;2022-09-16T12:03:41;16.90;84.20
148;DHT22;142;50.652;12.216;2022-09-16T12:06:15;17.00;84.60
148;DHT22;142;50.652;12.216;2022-09-16T12:08:53;17.00;84.40
148;DHT22;142;50.652;12.216;2022-09-16T12:11:25;17.20;84.70
148;DHT22;142;50.652;12.216;2022-09-16T12:14:02;17.50;84.90
148;DHT22;142;50.652;12.216;2022-09-16T12:16:36;17.50;84.00
148;DHT22;142;50.652;12.216;2022-09-16T12:19:11;17.30;85.00
148;DHT22;142;50.652;12.216;2022-09-16T12:21:46;17.20;84.80
148;DHT22;142;50.652;12.216;2022-09-16T12:24:19;17.40;85.20
148;DHT22;142;50.652;12.216;2022-09-16T12:26:51;17.60;85.20
148;DHT22;142;50.652;12.216;2022-09-16T12:29:27;17.70;84.60
148;DHT22;142;50.652;12.216;2022-09-16T12:32:00;17.70;84.60
148;DHT22;142;50.652;12.216;2022-09-16T12:34:36;17.80;84.60
148;DHT22;142;50.652;12.216;2022-09-16T12:37:11;17.80;84.60
148;DHT22;142;50.652;12.216;2022-09-16T12:39:42;17.70;84.40
148;DHT22;142;50.652;12.216;2022-09-16T12:45:27;17.50;85.20
148;DHT22;142;50.652;12.216;2022-09-16T12:48:22;17.60;85.40
148;DHT22;142;50.652;12.216;2022-09-16T12:51:15;17.50;85.50
148;DHT22;142;50.652;12.216;2022-09-16T12:57:04;17.00;75.10
148;DHT22;142;50.652;12.216;2022-09-16T12:59:57;16.10;63.70
148;DHT22;142;50.652;12.216;2022-09-16T13:02:34;15.40;60.90
148;DHT22;142;50.652;12.216;2022-09-16T13:05:24;15.00;58.90
148;DHT22;142;50.652;12.216;2022-09-16T13:07:53;14.90;61.10
148;DHT22;142;50.652;12.216;2022-09-16T13:10:30;14.90;62.60
148;DHT22;142;50.652;12.216;2022-09-16T13:13:01;14.80;63.50
148;DHT22;142;50.652;12.216;2022-09-16T13:15:30;14.70;63.80
148;DHT22;142;50.652;12.216;2022-09-16T13:18:08;14.60;64.60
148;DHT22;142;50.652;12.216;2022-09-16T13:20:39;14.20;61.40
148;DHT22;142;50.652;12.216;2022-09-16T13:23:10;14.20;60.40
148;DHT22;142;50.652;12.216;2022-09-16T13:25:46;14.30;59.00
148;DHT22;142;50.652;12.216;2022-09-16T13:28:34;14.40;58.50
148;DHT22;142;50.652;12.216;2022-09-16T13:31:15;14.70;59.20
148;DHT22;142;50.652;12.216;2022-09-16T13:33:44;14.80;57.40
148;DHT22;142;50.652;12.216;2022-09-16T13:36:28;14.90;55.00
148;DHT22;142;50.652;12.216;2022-09-16T13:38:57;15.00;55.30
148;DHT22;142;50.652;12.216;2022-09-16T13:41:30;15.30;56.70
148;DHT22;142;50.652;12.216;2022-09-16T13:44:01;15.30;53.90
148;DHT22;142;50.652;12.216;2022-09-16T13:46:32;15.40;52.90
148;DHT22;142;50.652;12.216;2022-09-16T13:49:18;15.40;54.10
148;DHT22;142;50.652;12.216;2022-09-16T13:51:48;15.30;54.60
148;DHT22;142;50.652;12.216;2022-09-16T13:54:19;15.10;54.70
148;DHT22;142;50.652;12.216;2022-09-16T13:56:58;15.10;55.30
148;DHT22;142;50.652;12.216;2022-09-16T13:59:39;15.20;56.50
148;DHT22;142;50.652;12.216;2022-09-16T14:02:14;15.10;54.70
148;DHT22;142;50.652;12.216;2022-09-16T14:04:57;15.10;53.50
148;DHT22;142;50.652;12.216;2022-09-16T14:07:34;15.10;52.00
148;DHT22;142;50.652;12.216;2022-09-16T14:10:10;15.20;52.00
148;DHT22;142;50.652;12.216;2022-09-16T14:12:48;15.20;52.40
148;DHT22;142;50.652;12.216;2022-09-16T14:15:20;15.40;53.30
148;DHT22;142;50.652;12.216;2022-09-16T14:17:50;15.50;54.30
148;DHT22;142;50.652;12.216;2022-09-16T14:20:21;15.50;51.90
148;DHT22;142;50.652;12.216;2022-09-16T14:22:59;15.40;50.50
148;DHT22;142;50.652;12.216;2022-09-16T14:25:28;15.50;50.90
148;DHT22;142;50.652;12.216;2022-09-16T14:28:23;15.60;50.10
148;DHT22;142;50.652;12.216;2022-09-16T14:30:55;15.80;50.70
148;DHT22;142;50.652;12.216;2022-09-16T14:33:26;15.80;50.60
148;DHT22;142;50.652;12.216;2022-09-16T14:35:55;15.80;51.10
148;DHT22;142;50.652;12.216;2022-09-16T14:38:32;15.90;51.70
148;DHT22;142;50.652;12.216;2022-09-16T14:41:00;15.90;50.30
148;DHT22;142;50.652;12.216;2022-09-16T14:43:27;15.90;50.50
148;DHT22;142;50.652;12.216;2022-09-16T14:45:58;15.90;51.00
148;DHT22;142;50.652;12.216;2022-09-16T14:48:32;16.00;51.70
148;DHT22;142;50.652;12.216;2022-09-16T14:51:00;16.20;52.60
148;DHT22;142;50.652;12.216;2022-09-16T14:53:30;16.10;51.70
148;DHT22;142;50.652;12.216;2022-09-16T14:56:01;16.30;53.00
148;DHT22;142;50.652;12.216;2022-09-16T14:58:30;16.30;52.00
148;DHT22;142;50.652;12.216;2022-09-16T15:01:02;16.20;54.40
148;DHT22;142;50.652;12.216;2022-09-16T15:03:35;16.20;66.00
148;DHT22;142;50.652;12.216;2022-09-16T15:06:05;16.40;66.20
148;DHT22;142;50.652;12.216;2022-09-16T15:08:40;16.50;66.10
148;DHT22;142;50.652;12.216;2022-09-16T15:11:12;16.30;67.70
148;DHT22;142;50.652;12.216;2022-09-16T15:13:40;16.10;68.20
148;DHT22;142;50.652;12.216;2022-09-16T15:16:11;16.00;67.80
148;DHT22;142;50.652;12.216;2022-09-16T15:18:41;16.00;67.40
148;DHT22;142;50.652;12.216;2022-09-16T15:21:16;16.00;67.90
148;DHT22;142;50.652;12.216;2022-09-16T15:23:46;16.00;68.40
148;DHT22;142;50.652;12.216;2022-09-16T15:26:15;16.00;68.10
148;DHT22;142;50.652;12.216;2022-09-16T15:28:54;16.10;67.60
148;DHT22;142;50.652;12.216;2022-09-16T15:31:29;16.10;68.00
148;DHT22;142;50.652;12.216;2022-09-16T15:34:00;16.10;67.70
148;DHT22;142;50.652;12.216;2022-09-16T15:36:36;16.00;68.60
148;DHT22;142;50.652;12.216;2022-09-16T15:39:04;15.90;67.40
148;DHT22;142;50.652;12.216;2022-09-16T15:41:32;15.90;67.90
148;DHT22;142;50.652;12.216;2022-09-16T15:43:59;15.80;67.90
148;DHT22;142;50.652;12.216;2022-09-16T15:46:28;15.70;66.70
148;DHT22;142;50.652;12.216;2022-09-16T15:48:57;15.70;67.40
148;DHT22;142;50.652;12.216;2022-09-16T15:51:29;15.70;66.60
148;DHT22;142;50.652;12.216;2022-09-16T15:54:06;15.80;65.90
148;DHT22;142;50.652;12.216;2022-09-16T15:56:50;15.80;66.30
148;DHT22;142;50.652;12.216;2022-09-16T15:59:26;15.80;65.20
148;DHT22;142;50.652;12.216;2022-09-16T16:01:58;15.80;65.20
148;DHT22;142;50.652;12.216;2022-09-16T16:04:29;15.70;66.10
148;DHT22;142;50.652;12.216;2022-09-16T16:06:58;15.70;64.80
148;DHT22;142;50.652;12.216;2022-09-16T16:09:44;15.80;64.70
148;DHT22;142;50.652;12.216;2022-09-16T16:12:14;15.80;64.50
148;DHT22;142;50.652;12.216;2022-09-16T16:14:43;15.80;64.90
148;DHT22;142;50.652;12.216;2022-09-16T16:17:15;15.90;64.30
148;DHT22;142;50.652;12.216;2022-09-16T16:19:44;15.80;64.40
148;DHT22;142;50.652;12.216;2022-09-16T16:22:12;15.90;64.90
148;DHT22;142;50.652;12.216;2022-09-16T16:24:39;15.90;64.80
148;DHT22;142;50.652;12.216;2022-09-16T16:27:06;15.90;65.40
148;DHT22;142;50.652;12.216;2022-09-16T16:29:34;16.10;65.40
148;DHT22;142;50.652;12.216;2022-09-16T16:32:06;16.00;64.30
148;DHT22;142;50.652;12.216;2022-09-16T16:34:36;15.70;63.30
148;DHT22;142;50.652;12.216;2022-09-16T16:37:05;15.60;61.40
148;DHT22;142;50.652;12.216;2022-09-16T16:39:34;15.60;61.40
148;DHT22;142;50.652;12.216;2022-09-16T16:42:02;15.50;60.40
148;DHT22;142;50.652;12.216;2022-09-16T16:44:31;15.40;60.10
148;DHT22;142;50.652;12.216;2022-09-16T16:46:59;15.30;59.10
148;DHT22;142;50.652;12.216;2022-09-16T16:49:27;15.20;59.10
148;DHT22;142;50.652;12.216;2022-09-16T16:51:55;15.20;58.40
148;DHT22;142;50.652;12.216;2022-09-16T16:54:23;15.10;58.50
148;DHT22;142;50.652;12.216;2022-09-16T16:56:51;15.10;58.30
148;DHT22;142;50.652;12.216;2022-09-16T16:59:19;15.20;58.10
148;DHT22;142;50.652;12.216;2022-09-16T17:01:49;15.10;58.00
148;DHT22;142;50.652;12.216;2022-09-16T17:04:17;15.10;58.20